DLH3RJ EGPH-EKBI
Flight info
| Callsign | DLH3RJ |
|---|---|
| Flight time | 1h 32m |
| Altitude | 37000 |
| Route | GRICE P600 ASNUD DCT ELSAN DCT VAXIT DCT LOKSA |
| Aircraft | A20N/M-SDE2E3FGHIRWXY/LB1 |
Departure
| Time | 2026-05-07 15:25 |
|---|---|
| Airport | Edinburgh Airport (EGPH) |
Arrival
| Time | 2026-05-07 16:57 |
|---|---|
| Airport | Billund Airport (EKBI) |
| Time | Latitude | Longitude | Altitude | Speed | Heading |
|---|---|---|---|---|---|
| 2026-05-07 14:21 | 55.94802 | -3.35678 | 107 ft | 0 kts | 208° |
| 2026-05-07 15:15 | 55.94809 | -3.35672 | 107 ft | 3 kts | 213° |
| 2026-05-07 15:15 | 55.94826 | -3.35647 | 104 ft | 3 kts | 230° |
| 2026-05-07 15:15 | 55.94838 | -3.35614 | 107 ft | 3 kts | 252° |
| 2026-05-07 15:16 | 55.94841 | -3.35575 | 105 ft | 3 kts | 274° |
| 2026-05-07 15:16 | 55.94837 | -3.35539 | 105 ft | 0 kts | 295° |
| 2026-05-07 15:20 | 55.94838 | -3.35546 | 105 ft | 3 kts | 291° |
| 2026-05-07 15:20 | 55.94857 | -3.35628 | 107 ft | 11 kts | 295° |
| 2026-05-07 15:20 | 55.94910 | -3.35796 | 107 ft | 19 kts | 301° |
| 2026-05-07 15:21 | 55.95034 | -3.35844 | 107 ft | 18 kts | 345° |
| 2026-05-07 15:21 | 55.95083 | -3.35965 | 109 ft | 13 kts | 296° |
| 2026-05-07 15:21 | 55.95118 | -3.36125 | 107 ft | 15 kts | 298° |
| 2026-05-07 15:21 | 55.95186 | -3.36120 | 107 ft | 12 kts | 46° |
| 2026-05-07 15:22 | 55.95244 | -3.35967 | 105 ft | 18 kts | 59° |
| 2026-05-07 15:22 | 55.95317 | -3.35739 | 107 ft | 25 kts | 60° |
| 2026-05-07 15:22 | 55.95400 | -3.35498 | 110 ft | 0 kts | 58° |
| 2026-05-07 15:22 | 55.95408 | -3.35476 | 108 ft | 4 kts | 54° |
| 2026-05-07 15:23 | 55.95439 | -3.35420 | 109 ft | 8 kts | 22° |
| 2026-05-07 15:23 | 55.95493 | -3.35437 | 106 ft | 0 kts | 331° |
| 2026-05-07 15:23 | 55.95497 | -3.35442 | 107 ft | 3 kts | 330° |
| 2026-05-07 15:24 | 55.95543 | -3.35497 | 108 ft | 12 kts | 319° |
| 2026-05-07 15:24 | 55.95538 | -3.35649 | 107 ft | 7 kts | 239° |
| 2026-05-07 15:24 | 55.95513 | -3.35722 | 110 ft | 30 kts | 238° |
| 2026-05-07 15:24 | 55.95278 | -3.36411 | 108 ft | 96 kts | 239° |
| 2026-05-07 15:25 | 55.94836 | -3.37676 | 146 ft | 140 kts | 236° |
| 2026-05-07 15:25 | 55.94342 | -3.39127 | 743 ft | 134 kts | 236° |
| 2026-05-07 15:25 | 55.93869 | -3.40556 | 1362 ft | 132 kts | 235° |
| 2026-05-07 15:25 | 55.93395 | -3.41950 | 1833 ft | 138 kts | 234° |
| 2026-05-07 15:26 | 55.92865 | -3.43478 | 2137 ft | 151 kts | 235° |
| 2026-05-07 15:26 | 55.92280 | -3.45151 | 2347 ft | 168 kts | 236° |
| 2026-05-07 15:26 | 55.91618 | -3.47044 | 2457 ft | 190 kts | 235° |
| 2026-05-07 15:26 | 55.90887 | -3.49134 | 2665 ft | 208 kts | 235° |
| 2026-05-07 15:27 | 55.90110 | -3.51458 | 3014 ft | 229 kts | 243° |
| 2026-05-07 15:27 | 55.89838 | -3.54388 | 3420 ft | 253 kts | 273° |
| 2026-05-07 15:27 | 55.90480 | -3.57347 | 4131 ft | 264 kts | 302° |
| 2026-05-07 15:27 | 55.91866 | -3.59482 | 4827 ft | 275 kts | 330° |
| 2026-05-07 15:28 | 55.93734 | -3.60329 | 5435 ft | 284 kts | 358° |
| 2026-05-07 15:28 | 55.95704 | -3.59711 | 5857 ft | 295 kts | 17° |
| 2026-05-07 15:28 | 55.97675 | -3.58591 | 5991 ft | 294 kts | 12° |
| 2026-05-07 15:28 | 55.99673 | -3.58109 | 5997 ft | 287 kts | 358° |
| 2026-05-07 15:29 | 56.01662 | -3.58424 | 6004 ft | 288 kts | 346° |
| 2026-05-07 15:29 | 56.03588 | -3.59284 | 5997 ft | 284 kts | 339° |
| 2026-05-07 15:29 | 56.05457 | -3.60430 | 5996 ft | 284 kts | 336° |
| 2026-05-07 15:29 | 56.07296 | -3.61694 | 5995 ft | 283 kts | 335° |
| 2026-05-07 15:30 | 56.09102 | -3.62973 | 5999 ft | 284 kts | 334° |
| 2026-05-07 15:30 | 56.10948 | -3.64264 | 5998 ft | 284 kts | 337° |
| 2026-05-07 15:30 | 56.12857 | -3.65238 | 6005 ft | 285 kts | 341° |
| 2026-05-07 15:30 | 56.14777 | -3.66163 | 5996 ft | 286 kts | 341° |
| 2026-05-07 15:31 | 56.16699 | -3.67091 | 5999 ft | 287 kts | 341° |
| 2026-05-07 15:31 | 56.18641 | -3.67898 | 5992 ft | 289 kts | 353° |
| 2026-05-07 15:31 | 56.20639 | -3.67419 | 5997 ft | 294 kts | 20° |
| 2026-05-07 15:31 | 56.22427 | -3.65622 | 5995 ft | 295 kts | 35° |
| 2026-05-07 15:32 | 56.24073 | -3.63391 | 6094 ft | 298 kts | 39° |
| 2026-05-07 15:32 | 56.25689 | -3.61095 | 6630 ft | 302 kts | 39° |
| 2026-05-07 15:32 | 56.27366 | -3.58770 | 7031 ft | 304 kts | 37° |
| 2026-05-07 15:32 | 56.29040 | -3.56530 | 7152 ft | 298 kts | 37° |
| 2026-05-07 15:33 | 56.30728 | -3.54324 | 7262 ft | 302 kts | 36° |
| 2026-05-07 15:33 | 56.32434 | -3.52120 | 7366 ft | 300 kts | 36° |
| 2026-05-07 15:33 | 56.34134 | -3.49930 | 7485 ft | 301 kts | 36° |
| 2026-05-07 15:33 | 56.35846 | -3.47726 | 7723 ft | 303 kts | 36° |
| 2026-05-07 15:34 | 56.37572 | -3.45498 | 8269 ft | 304 kts | 36° |
| 2026-05-07 15:34 | 56.39296 | -3.43268 | 8612 ft | 307 kts | 36° |
| 2026-05-07 15:34 | 56.41002 | -3.41059 | 8721 ft | 305 kts | 36° |
| 2026-05-07 15:34 | 56.42727 | -3.38822 | 8819 ft | 306 kts | 36° |
| 2026-05-07 15:35 | 56.44458 | -3.36572 | 8931 ft | 306 kts | 36° |
| 2026-05-07 15:35 | 56.46203 | -3.34366 | 8937 ft | 306 kts | 34° |
| 2026-05-07 15:35 | 56.47969 | -3.32200 | 8948 ft | 307 kts | 34° |
| 2026-05-07 15:35 | 56.49748 | -3.30027 | 9215 ft | 310 kts | 34° |
| 2026-05-07 15:36 | 56.51539 | -3.27828 | 10088 ft | 310 kts | 34° |
| 2026-05-07 15:36 | 56.53341 | -3.25605 | 10550 ft | 316 kts | 34° |
| 2026-05-07 15:36 | 56.55147 | -3.23369 | 10680 ft | 314 kts | 34° |
| 2026-05-07 15:36 | 56.56930 | -3.21155 | 10796 ft | 316 kts | 34° |
| 2026-05-07 15:37 | 56.58747 | -3.18897 | 10907 ft | 316 kts | 34° |
| 2026-05-07 15:37 | 56.60559 | -3.16640 | 10975 ft | 316 kts | 34° |
| 2026-05-07 15:37 | 56.62373 | -3.14379 | 11079 ft | 317 kts | 34° |
| 2026-05-07 15:37 | 56.64191 | -3.12109 | 11182 ft | 318 kts | 34° |
| 2026-05-07 15:38 | 56.66015 | -3.09830 | 11273 ft | 319 kts | 34° |
| 2026-05-07 15:38 | 56.67826 | -3.07521 | 11419 ft | 318 kts | 39° |
| 2026-05-07 15:38 | 56.69235 | -3.04449 | 11593 ft | 318 kts | 65° |
| 2026-05-07 15:38 | 56.69868 | -3.00643 | 11781 ft | 314 kts | 86° |
| 2026-05-07 15:39 | 56.69983 | -2.96742 | 11960 ft | 313 kts | 94° |
| 2026-05-07 15:39 | 56.69968 | -2.92786 | 12149 ft | 313 kts | 94° |
| 2026-05-07 15:39 | 56.69967 | -2.88812 | 12344 ft | 315 kts | 93° |
| 2026-05-07 15:39 | 56.70013 | -2.84811 | 12562 ft | 317 kts | 92° |
| 2026-05-07 15:40 | 56.70095 | -2.80796 | 12775 ft | 319 kts | 91° |
| 2026-05-07 15:40 | 56.70196 | -2.76754 | 12989 ft | 320 kts | 90° |
| 2026-05-07 15:40 | 56.70306 | -2.72708 | 13203 ft | 321 kts | 90° |
| 2026-05-07 15:40 | 56.70416 | -2.68637 | 13421 ft | 323 kts | 90° |
| 2026-05-07 15:41 | 56.70524 | -2.64593 | 13641 ft | 324 kts | 90° |
| 2026-05-07 15:41 | 56.70630 | -2.60496 | 13845 ft | 325 kts | 90° |
| 2026-05-07 15:41 | 56.70735 | -2.56373 | 14034 ft | 326 kts | 90° |
| 2026-05-07 15:41 | 56.70838 | -2.52249 | 14233 ft | 326 kts | 91° |
| 2026-05-07 15:42 | 56.70939 | -2.48126 | 14427 ft | 326 kts | 91° |
| 2026-05-07 15:42 | 56.71039 | -2.43998 | 14623 ft | 327 kts | 91° |
| 2026-05-07 15:42 | 56.71138 | -2.39869 | 14820 ft | 327 kts | 91° |
| 2026-05-07 15:42 | 56.71235 | -2.35729 | 15025 ft | 327 kts | 91° |
| 2026-05-07 15:43 | 56.71330 | -2.31646 | 15274 ft | 327 kts | 91° |
| 2026-05-07 15:43 | 56.71425 | -2.27500 | 15528 ft | 328 kts | 91° |
| 2026-05-07 15:43 | 56.71518 | -2.23345 | 15783 ft | 329 kts | 91° |
| 2026-05-07 15:43 | 56.71610 | -2.19177 | 16037 ft | 330 kts | 91° |
| 2026-05-07 15:44 | 56.71702 | -2.15004 | 16298 ft | 330 kts | 91° |
| 2026-05-07 15:44 | 56.71792 | -2.10823 | 16565 ft | 331 kts | 91° |
| 2026-05-07 15:44 | 56.71880 | -2.06631 | 16821 ft | 332 kts | 91° |
| 2026-05-07 15:44 | 56.71968 | -2.02426 | 17075 ft | 333 kts | 91° |
| 2026-05-07 15:45 | 56.72054 | -1.98216 | 17348 ft | 334 kts | 91° |
| 2026-05-07 15:45 | 56.72139 | -1.93990 | 17617 ft | 335 kts | 91° |
| 2026-05-07 15:45 | 56.72222 | -1.89804 | 17886 ft | 336 kts | 91° |
| 2026-05-07 15:45 | 56.72305 | -1.85555 | 18165 ft | 336 kts | 91° |
| 2026-05-07 15:46 | 56.72466 | -1.77000 | 18651 ft | 339 kts | 91° |
| 2026-05-07 15:46 | 56.72545 | -1.72694 | 18892 ft | 341 kts | 92° |
| 2026-05-07 15:46 | 56.72623 | -1.68365 | 19135 ft | 343 kts | 92° |
| 2026-05-07 15:47 | 56.72700 | -1.64019 | 19380 ft | 344 kts | 92° |
| 2026-05-07 15:47 | 56.72776 | -1.59654 | 19626 ft | 346 kts | 92° |
| 2026-05-07 15:47 | 56.72850 | -1.55273 | 19874 ft | 347 kts | 92° |
| 2026-05-07 15:47 | 56.72922 | -1.50922 | 20119 ft | 349 kts | 92° |
| 2026-05-07 15:48 | 56.72994 | -1.46497 | 20374 ft | 350 kts | 92° |
| 2026-05-07 15:48 | 56.73065 | -1.42047 | 20623 ft | 352 kts | 92° |
| 2026-05-07 15:48 | 56.73135 | -1.37578 | 20889 ft | 354 kts | 92° |
| 2026-05-07 15:48 | 56.73199 | -1.33051 | 21155 ft | 364 kts | 92° |
| 2026-05-07 15:49 | 56.73262 | -1.28356 | 21421 ft | 378 kts | 92° |
| 2026-05-07 15:49 | 56.73328 | -1.23496 | 21689 ft | 391 kts | 91° |
| 2026-05-07 15:49 | 56.73399 | -1.18476 | 21963 ft | 403 kts | 91° |
| 2026-05-07 15:49 | 56.73472 | -1.13297 | 22262 ft | 414 kts | 91° |
| 2026-05-07 15:50 | 56.73546 | -1.08103 | 22587 ft | 417 kts | 91° |
| 2026-05-07 15:50 | 56.73619 | -1.02801 | 22915 ft | 420 kts | 91° |
| 2026-05-07 15:50 | 56.73688 | -0.97475 | 23249 ft | 422 kts | 91° |
| 2026-05-07 15:50 | 56.73754 | -0.92119 | 23582 ft | 424 kts | 91° |
| 2026-05-07 15:51 | 56.73817 | -0.86736 | 23862 ft | 426 kts | 91° |
| 2026-05-07 15:51 | 56.73876 | -0.81325 | 24182 ft | 429 kts | 91° |
| 2026-05-07 15:51 | 56.73934 | -0.75876 | 24712 ft | 431 kts | 91° |
| 2026-05-07 15:51 | 56.73990 | -0.70407 | 25183 ft | 433 kts | 91° |
| 2026-05-07 15:52 | 56.74043 | -0.64978 | 25626 ft | 436 kts | 91° |
| 2026-05-07 15:52 | 56.74095 | -0.59429 | 26073 ft | 439 kts | 91° |
| 2026-05-07 15:52 | 56.74145 | -0.53849 | 26522 ft | 442 kts | 91° |
| 2026-05-07 15:52 | 56.74192 | -0.48235 | 26947 ft | 445 kts | 91° |
| 2026-05-07 15:53 | 56.74237 | -0.42588 | 27365 ft | 447 kts | 91° |
| 2026-05-07 15:53 | 56.74280 | -0.36907 | 27784 ft | 450 kts | 91° |
| 2026-05-07 15:53 | 56.74320 | -0.31191 | 28177 ft | 453 kts | 91° |
| 2026-05-07 15:53 | 56.74358 | -0.25441 | 28561 ft | 455 kts | 91° |
| 2026-05-07 15:54 | 56.74394 | -0.19652 | 28845 ft | 460 kts | 91° |
| 2026-05-07 15:54 | 56.74427 | -0.13908 | 29286 ft | 460 kts | 91° |
| 2026-05-07 15:54 | 56.74458 | -0.08091 | 29813 ft | 458 kts | 91° |
| 2026-05-07 15:54 | 56.74486 | -0.02293 | 30218 ft | 460 kts | 91° |
| 2026-05-07 15:55 | 56.74510 | 0.03591 | 30342 ft | 467 kts | 91° |
| 2026-05-07 15:55 | 56.74532 | 0.09512 | 30653 ft | 469 kts | 92° |
| 2026-05-07 15:55 | 56.74552 | 0.15460 | 30984 ft | 470 kts | 92° |
| 2026-05-07 15:55 | 56.74570 | 0.21416 | 31346 ft | 471 kts | 92° |
| 2026-05-07 15:56 | 56.74585 | 0.27373 | 31783 ft | 469 kts | 92° |
| 2026-05-07 15:56 | 56.74597 | 0.33230 | 32192 ft | 468 kts | 92° |
| 2026-05-07 15:56 | 56.74606 | 0.39150 | 32616 ft | 467 kts | 92° |
| 2026-05-07 15:56 | 56.74612 | 0.45047 | 33024 ft | 465 kts | 92° |
| 2026-05-07 15:57 | 56.74615 | 0.50945 | 33423 ft | 464 kts | 92° |
| 2026-05-07 15:57 | 56.74615 | 0.56812 | 33828 ft | 463 kts | 92° |
| 2026-05-07 15:57 | 56.74612 | 0.62669 | 34177 ft | 462 kts | 92° |
| 2026-05-07 15:57 | 56.74606 | 0.68514 | 34452 ft | 462 kts | 92° |
| 2026-05-07 15:58 | 56.74598 | 0.74289 | 34708 ft | 462 kts | 92° |
| 2026-05-07 15:58 | 56.74587 | 0.80143 | 34967 ft | 462 kts | 92° |
| 2026-05-07 15:58 | 56.74573 | 0.85995 | 35224 ft | 462 kts | 92° |
| 2026-05-07 15:58 | 56.74557 | 0.91854 | 35465 ft | 462 kts | 92° |
| 2026-05-07 15:59 | 56.74538 | 0.97716 | 35697 ft | 463 kts | 92° |
| 2026-05-07 15:59 | 56.74516 | 1.03576 | 35936 ft | 463 kts | 92° |
| 2026-05-07 15:59 | 56.74492 | 1.09436 | 36161 ft | 463 kts | 92° |
| 2026-05-07 15:59 | 56.74464 | 1.15306 | 36379 ft | 463 kts | 92° |
| 2026-05-07 16:00 | 56.74445 | 1.19195 | 36528 ft | 464 kts | 92° |
| 2026-05-07 16:00 | 56.74413 | 1.25066 | 36738 ft | 464 kts | 92° |
| 2026-05-07 16:00 | 56.74366 | 1.32843 | 37008 ft | 464 kts | 92° |
| 2026-05-07 16:01 | 56.74286 | 1.44594 | 37064 ft | 463 kts | 92° |
| 2026-05-07 16:01 | 56.74196 | 1.56308 | 37074 ft | 463 kts | 93° |
| 2026-05-07 16:02 | 56.74112 | 1.66055 | 37078 ft | 463 kts | 93° |
| 2026-05-07 16:02 | 56.73983 | 1.79675 | 37064 ft | 463 kts | 93° |
| 2026-05-07 16:03 | 56.73859 | 1.91410 | 37092 ft | 464 kts | 93° |
| 2026-05-07 16:03 | 56.73725 | 2.03170 | 36888 ft | 463 kts | 93° |
| 2026-05-07 16:04 | 56.73606 | 2.12862 | 36948 ft | 460 kts | 93° |
| 2026-05-07 16:04 | 56.73530 | 2.18709 | 37061 ft | 463 kts | 93° |
| 2026-05-07 16:04 | 56.73451 | 2.24583 | 37079 ft | 465 kts | 93° |
| 2026-05-07 16:05 | 56.73286 | 2.36318 | 37095 ft | 463 kts | 93° |
| 2026-05-07 16:05 | 56.73109 | 2.48057 | 37096 ft | 464 kts | 93° |
| 2026-05-07 16:06 | 56.72923 | 2.59716 | 37089 ft | 464 kts | 93° |
| 2026-05-07 16:06 | 56.72724 | 2.71464 | 37100 ft | 464 kts | 93° |
| 2026-05-07 16:07 | 56.72514 | 2.83202 | 37099 ft | 464 kts | 93° |
| 2026-05-07 16:07 | 56.72293 | 2.94948 | 37105 ft | 464 kts | 94° |
| 2026-05-07 16:08 | 56.72063 | 3.06607 | 37111 ft | 464 kts | 94° |
| 2026-05-07 16:08 | 56.71821 | 3.18348 | 37116 ft | 464 kts | 94° |
| 2026-05-07 16:09 | 56.71567 | 3.30088 | 37124 ft | 464 kts | 94° |
| 2026-05-07 16:09 | 56.71302 | 3.41827 | 37112 ft | 464 kts | 94° |
| 2026-05-07 16:10 | 56.71028 | 3.53491 | 37121 ft | 464 kts | 94° |
| 2026-05-07 16:10 | 56.70746 | 3.65233 | 37122 ft | 464 kts | 94° |
| 2026-05-07 16:11 | 56.70073 | 3.76892 | 37122 ft | 462 kts | 103° |
| 2026-05-07 16:11 | 56.68601 | 3.88275 | 37122 ft | 462 kts | 105° |
| 2026-05-07 16:12 | 56.67149 | 3.99658 | 37120 ft | 462 kts | 105° |
| 2026-05-07 16:12 | 56.65692 | 4.10960 | 37128 ft | 462 kts | 105° |
| 2026-05-07 16:13 | 56.64208 | 4.22323 | 37128 ft | 462 kts | 105° |
| 2026-05-07 16:13 | 56.62713 | 4.33677 | 37120 ft | 462 kts | 105° |
| 2026-05-07 16:14 | 56.61208 | 4.45017 | 37116 ft | 462 kts | 105° |
| 2026-05-07 16:14 | 56.59692 | 4.56361 | 37122 ft | 462 kts | 105° |
| 2026-05-07 16:15 | 56.58178 | 4.67600 | 37128 ft | 462 kts | 105° |
| 2026-05-07 16:15 | 56.56641 | 4.78925 | 37121 ft | 462 kts | 105° |
| 2026-05-07 16:16 | 56.55092 | 4.90246 | 37116 ft | 462 kts | 105° |
| 2026-05-07 16:16 | 56.53536 | 5.01550 | 37124 ft | 463 kts | 105° |
| 2026-05-07 16:17 | 56.52025 | 5.12812 | 36807 ft | 462 kts | 105° |
| 2026-05-07 16:17 | 56.51268 | 5.18536 | 36547 ft | 461 kts | 105° |
| 2026-05-07 16:17 | 56.50529 | 5.24108 | 36287 ft | 461 kts | 105° |
| 2026-05-07 16:17 | 56.49779 | 5.29738 | 36026 ft | 461 kts | 105° |
| 2026-05-07 16:18 | 56.49022 | 5.35379 | 35781 ft | 461 kts | 105° |
| 2026-05-07 16:18 | 56.48262 | 5.41007 | 35536 ft | 461 kts | 105° |
| 2026-05-07 16:18 | 56.47497 | 5.46634 | 35288 ft | 460 kts | 105° |
| 2026-05-07 16:18 | 56.46731 | 5.52251 | 35042 ft | 460 kts | 105° |
| 2026-05-07 16:19 | 56.45962 | 5.57866 | 34801 ft | 460 kts | 105° |
| 2026-05-07 16:19 | 56.45192 | 5.63471 | 34562 ft | 460 kts | 105° |
| 2026-05-07 16:19 | 56.44428 | 5.69007 | 34328 ft | 460 kts | 105° |
| 2026-05-07 16:19 | 56.43653 | 5.74607 | 34080 ft | 459 kts | 105° |
| 2026-05-07 16:20 | 56.42876 | 5.80203 | 33804 ft | 460 kts | 105° |
| 2026-05-07 16:20 | 56.42094 | 5.85813 | 33531 ft | 461 kts | 105° |
| 2026-05-07 16:20 | 56.41308 | 5.91428 | 33256 ft | 462 kts | 105° |
| 2026-05-07 16:20 | 56.40516 | 5.97061 | 32983 ft | 462 kts | 105° |
| 2026-05-07 16:21 | 56.39723 | 6.02690 | 32718 ft | 463 kts | 105° |
| 2026-05-07 16:21 | 56.38926 | 6.08321 | 32454 ft | 464 kts | 106° |
| 2026-05-07 16:21 | 56.38134 | 6.13898 | 32194 ft | 465 kts | 106° |
| 2026-05-07 16:21 | 56.37329 | 6.19549 | 31937 ft | 465 kts | 106° |
| 2026-05-07 16:22 | 56.36520 | 6.25206 | 31675 ft | 466 kts | 106° |
| 2026-05-07 16:22 | 56.35707 | 6.30868 | 31429 ft | 467 kts | 106° |
| 2026-05-07 16:22 | 56.34889 | 6.36544 | 31172 ft | 468 kts | 106° |
| 2026-05-07 16:22 | 56.34069 | 6.42216 | 30917 ft | 468 kts | 106° |
| 2026-05-07 16:23 | 56.33246 | 6.47888 | 30675 ft | 467 kts | 106° |
| 2026-05-07 16:23 | 56.32424 | 6.53536 | 30434 ft | 465 kts | 106° |
| 2026-05-07 16:23 | 56.31603 | 6.59161 | 30181 ft | 464 kts | 106° |
| 2026-05-07 16:23 | 56.30792 | 6.64691 | 29892 ft | 461 kts | 106° |
| 2026-05-07 16:24 | 56.29972 | 6.70262 | 29601 ft | 459 kts | 106° |
| 2026-05-07 16:24 | 56.29153 | 6.75806 | 29328 ft | 458 kts | 107° |
| 2026-05-07 16:24 | 56.28336 | 6.81323 | 29041 ft | 456 kts | 107° |
| 2026-05-07 16:24 | 56.27518 | 6.86821 | 28762 ft | 454 kts | 107° |
| 2026-05-07 16:25 | 56.26702 | 6.92289 | 28492 ft | 452 kts | 107° |
| 2026-05-07 16:25 | 56.25888 | 6.97727 | 28217 ft | 450 kts | 107° |
| 2026-05-07 16:25 | 56.25073 | 7.03158 | 27937 ft | 448 kts | 107° |
| 2026-05-07 16:25 | 56.24259 | 7.08557 | 27674 ft | 447 kts | 107° |
| 2026-05-07 16:26 | 56.23457 | 7.13864 | 27419 ft | 445 kts | 107° |
| 2026-05-07 16:26 | 56.22645 | 7.19214 | 27155 ft | 444 kts | 107° |
| 2026-05-07 16:26 | 56.21832 | 7.24556 | 26893 ft | 442 kts | 107° |
| 2026-05-07 16:26 | 56.21020 | 7.29872 | 26628 ft | 440 kts | 107° |
| 2026-05-07 16:27 | 56.20210 | 7.35163 | 26381 ft | 439 kts | 107° |
| 2026-05-07 16:27 | 56.19400 | 7.40434 | 26119 ft | 438 kts | 107° |
| 2026-05-07 16:27 | 56.18589 | 7.45695 | 25874 ft | 436 kts | 107° |
| 2026-05-07 16:27 | 56.17779 | 7.50934 | 25623 ft | 435 kts | 107° |
| 2026-05-07 16:28 | 56.16981 | 7.56078 | 25385 ft | 433 kts | 107° |
| 2026-05-07 16:28 | 56.16171 | 7.61283 | 25083 ft | 433 kts | 107° |
| 2026-05-07 16:28 | 56.15358 | 7.66489 | 24521 ft | 434 kts | 107° |
| 2026-05-07 16:28 | 56.14547 | 7.71671 | 24083 ft | 428 kts | 107° |
| 2026-05-07 16:29 | 56.13750 | 7.76754 | 23762 ft | 421 kts | 107° |
| 2026-05-07 16:29 | 56.12954 | 7.81803 | 23382 ft | 422 kts | 107° |
| 2026-05-07 16:29 | 56.12154 | 7.86860 | 22985 ft | 421 kts | 107° |
| 2026-05-07 16:29 | 56.11358 | 7.91884 | 22600 ft | 417 kts | 107° |
| 2026-05-07 16:30 | 56.10577 | 7.96797 | 22240 ft | 414 kts | 107° |
| 2026-05-07 16:30 | 56.09790 | 8.01736 | 21861 ft | 411 kts | 107° |
| 2026-05-07 16:30 | 56.09004 | 8.06650 | 21488 ft | 409 kts | 107° |
| 2026-05-07 16:30 | 56.08223 | 8.11523 | 21131 ft | 407 kts | 107° |
| 2026-05-07 16:31 | 56.07442 | 8.16379 | 20769 ft | 404 kts | 107° |
| 2026-05-07 16:31 | 56.06665 | 8.21196 | 20413 ft | 402 kts | 107° |
| 2026-05-07 16:31 | 56.05890 | 8.25992 | 20061 ft | 400 kts | 107° |
| 2026-05-07 16:31 | 56.05117 | 8.30755 | 19710 ft | 398 kts | 107° |
| 2026-05-07 16:32 | 56.04358 | 8.35426 | 19365 ft | 395 kts | 107° |
| 2026-05-07 16:32 | 56.03591 | 8.40127 | 19036 ft | 393 kts | 107° |
| 2026-05-07 16:32 | 56.02825 | 8.44815 | 18641 ft | 392 kts | 107° |
| 2026-05-07 16:32 | 56.02063 | 8.49463 | 18183 ft | 387 kts | 107° |
| 2026-05-07 16:33 | 56.01306 | 8.54064 | 17719 ft | 384 kts | 107° |
| 2026-05-07 16:33 | 56.00553 | 8.58635 | 17278 ft | 382 kts | 107° |
| 2026-05-07 16:33 | 55.99805 | 8.63164 | 16814 ft | 378 kts | 107° |
| 2026-05-07 16:33 | 55.99060 | 8.67657 | 16370 ft | 376 kts | 107° |
| 2026-05-07 16:34 | 55.98319 | 8.72119 | 15936 ft | 373 kts | 107° |
| 2026-05-07 16:34 | 55.97593 | 8.76480 | 15515 ft | 371 kts | 107° |
| 2026-05-07 16:34 | 55.96860 | 8.80876 | 15086 ft | 368 kts | 107° |
| 2026-05-07 16:34 | 55.96129 | 8.85244 | 14667 ft | 366 kts | 107° |
| 2026-05-07 16:35 | 55.95402 | 8.89575 | 14265 ft | 363 kts | 107° |
| 2026-05-07 16:35 | 55.94678 | 8.93878 | 13843 ft | 361 kts | 107° |
| 2026-05-07 16:35 | 55.93957 | 8.98155 | 13381 ft | 358 kts | 107° |
| 2026-05-07 16:35 | 55.93245 | 9.02373 | 12926 ft | 353 kts | 107° |
| 2026-05-07 16:36 | 55.92539 | 9.06538 | 12487 ft | 348 kts | 107° |
| 2026-05-07 16:36 | 55.91851 | 9.10593 | 12048 ft | 344 kts | 107° |
| 2026-05-07 16:36 | 55.91160 | 9.14649 | 11611 ft | 340 kts | 107° |
| 2026-05-07 16:36 | 55.90476 | 9.18659 | 11184 ft | 336 kts | 107° |
| 2026-05-07 16:37 | 55.89799 | 9.22620 | 10749 ft | 332 kts | 107° |
| 2026-05-07 16:37 | 55.89127 | 9.26536 | 10336 ft | 329 kts | 107° |
| 2026-05-07 16:37 | 55.88462 | 9.30411 | 9917 ft | 326 kts | 107° |
| 2026-05-07 16:37 | 55.87803 | 9.34243 | 9440 ft | 323 kts | 107° |
| 2026-05-07 16:38 | 55.87145 | 9.38059 | 8890 ft | 322 kts | 107° |
| 2026-05-07 16:38 | 55.86496 | 9.41818 | 8346 ft | 322 kts | 107° |
| 2026-05-07 16:38 | 55.85839 | 9.45623 | 7797 ft | 321 kts | 107° |
| 2026-05-07 16:38 | 55.85105 | 9.49399 | 7038 ft | 327 kts | 116° |
| 2026-05-07 16:39 | 55.83716 | 9.52627 | 6186 ft | 334 kts | 139° |
| 2026-05-07 16:39 | 55.81695 | 9.54740 | 5164 ft | 344 kts | 161° |
| 2026-05-07 16:39 | 55.79312 | 9.55380 | 4185 ft | 352 kts | 183° |
| 2026-05-07 16:39 | 55.76968 | 9.54340 | 3665 ft | 345 kts | 206° |
| 2026-05-07 16:40 | 55.75083 | 9.51870 | 3368 ft | 332 kts | 229° |
| 2026-05-07 16:40 | 55.73942 | 9.48446 | 3190 ft | 316 kts | 252° |
| 2026-05-07 16:40 | 55.73701 | 9.44710 | 3107 ft | 298 kts | 277° |
| 2026-05-07 16:40 | 55.74025 | 9.41245 | 3103 ft | 279 kts | 281° |
| 2026-05-07 16:41 | 55.74321 | 9.37947 | 3109 ft | 263 kts | 278° |
| 2026-05-07 16:41 | 55.74471 | 9.34809 | 3100 ft | 248 kts | 274° |
| 2026-05-07 16:41 | 55.74510 | 9.31839 | 3096 ft | 234 kts | 271° |
| 2026-05-07 16:41 | 55.74436 | 9.29003 | 2936 ft | 228 kts | 265° |
| 2026-05-07 16:42 | 55.74267 | 9.26176 | 2503 ft | 233 kts | 268° |
| 2026-05-07 16:42 | 55.74230 | 9.23289 | 2022 ft | 237 kts | 269° |
| 2026-05-07 16:42 | 55.74125 | 9.20409 | 1899 ft | 229 kts | 268° |
| 2026-05-07 16:42 | 55.74076 | 9.17765 | 2247 ft | 200 kts | 270° |
| 2026-05-07 16:43 | 55.74033 | 9.15368 | 2637 ft | 198 kts | 269° |
| 2026-05-07 16:43 | 55.73968 | 9.12929 | 3013 ft | 198 kts | 269° |
| 2026-05-07 16:43 | 55.73894 | 9.10460 | 3094 ft | 199 kts | 268° |
| 2026-05-07 16:43 | 55.73816 | 9.08024 | 3095 ft | 198 kts | 268° |
| 2026-05-07 16:44 | 55.73737 | 9.05583 | 3106 ft | 199 kts | 268° |
| 2026-05-07 16:44 | 55.73741 | 9.03152 | 3094 ft | 195 kts | 287° |
| 2026-05-07 16:44 | 55.74434 | 9.01128 | 3099 ft | 194 kts | 324° |
| 2026-05-07 16:44 | 55.75658 | 9.00317 | 3104 ft | 189 kts | 2° |
| 2026-05-07 16:45 | 55.76872 | 9.01040 | 3103 ft | 191 kts | 40° |
| 2026-05-07 16:45 | 55.77585 | 9.03008 | 3105 ft | 195 kts | 77° |
| 2026-05-07 16:45 | 55.77588 | 9.05420 | 3106 ft | 197 kts | 96° |
| 2026-05-07 16:45 | 55.77448 | 9.07825 | 3104 ft | 195 kts | 91° |
| 2026-05-07 16:46 | 55.77461 | 9.10234 | 3104 ft | 195 kts | 84° |
| 2026-05-07 16:46 | 55.77640 | 9.12617 | 3094 ft | 194 kts | 77° |
| 2026-05-07 16:46 | 55.77926 | 9.14953 | 3099 ft | 193 kts | 75° |
| 2026-05-07 16:46 | 55.78260 | 9.17271 | 3105 ft | 194 kts | 73° |
| 2026-05-07 16:47 | 55.78607 | 9.19580 | 3105 ft | 192 kts | 73° |
| 2026-05-07 16:47 | 55.78965 | 9.21840 | 3098 ft | 193 kts | 73° |
| 2026-05-07 16:47 | 55.79311 | 9.24145 | 3049 ft | 195 kts | 73° |
| 2026-05-07 16:47 | 55.79647 | 9.26457 | 2993 ft | 191 kts | 73° |
| 2026-05-07 16:48 | 55.79985 | 9.28750 | 3003 ft | 193 kts | 74° |
| 2026-05-07 16:48 | 55.80327 | 9.31066 | 2996 ft | 193 kts | 73° |
| 2026-05-07 16:48 | 55.80666 | 9.33378 | 3004 ft | 193 kts | 74° |
| 2026-05-07 16:48 | 55.81003 | 9.35687 | 3004 ft | 194 kts | 74° |
| 2026-05-07 16:49 | 55.81343 | 9.38015 | 3000 ft | 193 kts | 73° |
| 2026-05-07 16:49 | 55.81677 | 9.40279 | 2999 ft | 192 kts | 74° |
| 2026-05-07 16:49 | 55.82014 | 9.42585 | 3005 ft | 193 kts | 74° |
| 2026-05-07 16:49 | 55.82349 | 9.44901 | 3005 ft | 193 kts | 74° |
| 2026-05-07 16:50 | 55.82687 | 9.47211 | 3003 ft | 195 kts | 74° |
| 2026-05-07 16:50 | 55.83027 | 9.49532 | 2995 ft | 193 kts | 73° |
| 2026-05-07 16:50 | 55.83069 | 9.51898 | 3003 ft | 197 kts | 107° |
| 2026-05-07 16:50 | 55.82295 | 9.53878 | 3009 ft | 200 kts | 144° |
| 2026-05-07 16:51 | 55.80986 | 9.54641 | 3002 ft | 202 kts | 182° |
| 2026-05-07 16:51 | 55.79615 | 9.54085 | 2994 ft | 204 kts | 199° |
| 2026-05-07 16:51 | 55.78294 | 9.53263 | 2993 ft | 204 kts | 200° |
| 2026-05-07 16:51 | 55.76966 | 9.52426 | 2999 ft | 202 kts | 199° |
| 2026-05-07 16:52 | 55.75798 | 9.51113 | 3012 ft | 201 kts | 235° |
| 2026-05-07 16:52 | 55.75242 | 9.48972 | 3000 ft | 183 kts | 258° |
| 2026-05-07 16:52 | 55.75051 | 9.46872 | 2996 ft | 164 kts | 266° |
| 2026-05-07 16:52 | 55.74971 | 9.44949 | 2982 ft | 147 kts | 269° |
| 2026-05-07 16:53 | 55.74917 | 9.43109 | 3020 ft | 156 kts | 269° |
| 2026-05-07 16:53 | 55.74854 | 9.41204 | 2995 ft | 152 kts | 269° |
| 2026-05-07 16:53 | 55.74796 | 9.39421 | 2846 ft | 142 kts | 269° |
| 2026-05-07 16:53 | 55.74742 | 9.37696 | 2660 ft | 139 kts | 269° |
| 2026-05-07 16:54 | 55.74689 | 9.35972 | 2473 ft | 141 kts | 269° |
| 2026-05-07 16:54 | 55.74633 | 9.34232 | 2286 ft | 142 kts | 269° |
| 2026-05-07 16:54 | 55.74578 | 9.32480 | 2089 ft | 142 kts | 269° |
| 2026-05-07 16:54 | 55.74522 | 9.30743 | 1892 ft | 140 kts | 269° |
| 2026-05-07 16:55 | 55.74469 | 9.28998 | 1705 ft | 143 kts | 269° |
| 2026-05-07 16:55 | 55.74413 | 9.27252 | 1507 ft | 141 kts | 269° |
| 2026-05-07 16:55 | 55.74359 | 9.25544 | 1269 ft | 140 kts | 270° |
| 2026-05-07 16:55 | 55.74306 | 9.23861 | 1016 ft | 134 kts | 269° |
| 2026-05-07 16:56 | 55.74254 | 9.22225 | 791 ft | 131 kts | 269° |
| 2026-05-07 16:56 | 55.74204 | 9.20618 | 601 ft | 130 kts | 269° |
| 2026-05-07 16:56 | 55.74103 | 9.17442 | 250 ft | 124 kts | 269° |
| 2026-05-07 16:57 | 55.74069 | 9.16210 | 242 ft | 71 kts | 266° |
| 2026-05-07 16:57 | 55.74050 | 9.15687 | 237 ft | 14 kts | 267° |
| 2026-05-07 16:57 | 55.74049 | 9.15637 | 237 ft | 10 kts | 267° |
| 2026-05-07 16:57 | 55.74042 | 9.15391 | 236 ft | 28 kts | 267° |
| 2026-05-07 16:58 | 55.74033 | 9.14975 | 239 ft | 39 kts | 267° |
| 2026-05-07 16:58 | 55.74033 | 9.14557 | 231 ft | 12 kts | 301° |
| 2026-05-07 16:58 | 55.74133 | 9.14489 | 231 ft | 19 kts | 352° |
| 2026-05-07 16:58 | 55.74286 | 9.14471 | 233 ft | 25 kts | 359° |
| 2026-05-07 16:59 | 55.74450 | 9.14527 | 231 ft | 21 kts | 54° |
| 2026-05-07 16:59 | 55.74517 | 9.14680 | 234 ft | 10 kts | 359° |
| 2026-05-07 16:59 | 55.74525 | 9.14679 | 235 ft | 0 kts | 353° |